Time;durP1;ratioP1;P1;durP2;ratioP2;P2;SDS_P1;SDS_P2;PMS_P1;PMS_P2;Temp;Humidity;BMP_temperature;BMP_pressure;BME280_temperature;BME280_humidity;BME280_pressure;Samples;Min_cycle;Max_cycle;Signal;HPM_P1;HPM_P2
2023/12/03 00:00:41;;;;;;;8.10;5.47;;;;;;;;;;5113877;28;20321;-79
2023/12/03 00:03:08;;;;;;;5.83;5.00;;;;;;;;;;5109492;28;20223;-79
2023/12/03 00:05:35;;;;;;;6.40;5.80;;;;;;;;;;5113979;28;20255;-79
2023/12/03 00:08:03;;;;;;;5.63;5.13;;;;;;;;;;5114562;28;20199;-79
2023/12/03 00:10:30;;;;;;;7.00;6.30;;;;;;;;;;5113897;28;20228;-80
2023/12/03 00:12:58;;;;;;;4.27;4.03;;;;;;;;;;5114235;28;20307;-79
2023/12/03 00:15:25;;;;;;;5.40;4.90;;;;;;;;;;5113731;28;20601;-80
2023/12/03 00:17:52;;;;;;;5.40;4.90;;;;;;;;;;5114553;28;20197;-79
2023/12/03 00:20:19;;;;;;;7.87;6.13;;;;;;;;;;5113676;28;20251;-79
2023/12/03 00:22:46;;;;;;;6.03;5.33;;;;;;;;;;5113357;28;20204;-79
2023/12/03 00:25:13;;;;;;;5.53;5.00;;;;;;;;;;5113962;28;20198;-79
2023/12/03 00:27:41;;;;;;;5.33;4.83;;;;;;;;;;5113920;28;20208;-79
2023/12/03 00:30:10;;;;;;;9.17;6.90;;;;;;;;;;5113607;28;20202;-79
2023/12/03 00:32:37;;;;;;;6.43;5.80;;;;;;;;;;5113670;28;20208;-79
2023/12/03 00:35:05;;;;;;;7.70;6.17;;;;;;;;;;5113437;28;20662;-80
2023/12/03 00:37:32;;;;;;;9.37;6.57;;;;;;;;;;5113845;28;20277;-79
2023/12/03 00:39:59;;;;;;;5.50;4.97;;;;;;;;;;5114245;28;20265;-79
2023/12/03 00:42:26;;;;;;;5.60;5.10;;;;;;;;;;5113253;28;20758;-79
2023/12/03 00:44:53;;;;;;;8.37;6.67;;;;;;;;;;5113866;28;20204;-79
2023/12/03 00:47:21;;;;;;;7.37;5.50;;;;;;;;;;5113222;28;20608;-80
2023/12/03 00:49:48;;;;;;;8.80;5.70;;;;;;;;;;5113515;28;20212;-79
2023/12/03 00:52:15;;;;;;;9.10;7.27;;;;;;;;;;5112864;28;20247;-76
2023/12/03 00:54:41;;;;;;;12.60;7.17;;;;;;;;;;5113333;28;20228;-79
2023/12/03 00:57:08;;;;;;;10.43;7.50;;;;;;;;;;5112848;28;20228;-79
2023/12/03 00:59:35;;;;;;;7.83;6.17;;;;;;;;;;5113167;28;20625;-79
2023/12/03 01:02:02;;;;;;;8.33;5.93;;;;;;;;;;5113030;28;20292;-79
2023/12/03 01:04:30;;;;;;;6.60;6.00;;;;;;;;;;5113174;28;20658;-79
2023/12/03 01:06:58;;;;;;;7.87;6.97;;;;;;;;;;5112825;28;20230;-79
2023/12/03 01:09:26;;;;;;;8.60;6.40;;;;;;;;;;5113157;28;20224;-79
2023/12/03 01:11:56;;;;;;;7.30;5.73;;;;;;;;;;5112472;28;20227;-79
2023/12/03 01:14:23;;;;;;;5.93;4.70;;;;;;;;;;5112892;28;20307;-77
2023/12/03 01:16:50;;;;;;;10.27;7.17;;;;;;;;;;5112341;28;20231;-77
2023/12/03 01:19:17;;;;;;;6.47;4.77;;;;;;;;;;5112846;28;20203;-76
2023/12/03 01:21:45;;;;;;;11.13;6.63;;;;;;;;;;5112024;28;20289;-77
2023/12/03 01:24:12;;;;;;;6.23;4.70;;;;;;;;;;5111147;28;20617;-78
2023/12/03 01:26:39;;;;;;;11.90;6.30;;;;;;;;;;5105181;28;20236;-78
2023/12/03 01:29:06;;;;;;;7.33;4.87;;;;;;;;;;5112339;28;20200;-78
2023/12/03 01:31:33;;;;;;;8.20;6.43;;;;;;;;;;5112128;28;20228;-78
2023/12/03 01:34:00;;;;;;;6.63;6.03;;;;;;;;;;5111442;28;20232;-78
2023/12/03 01:36:27;;;;;;;7.40;6.63;;;;;;;;;;5111914;28;20826;-78
2023/12/03 01:38:56;;;;;;;5.20;4.77;;;;;;;;;;5112337;28;20198;-78
2023/12/03 01:41:23;;;;;;;9.00;6.90;;;;;;;;;;5109809;28;20246;-78
2023/12/03 01:43:50;;;;;;;10.27;7.43;;;;;;;;;;5110913;28;20204;-79
2023/12/03 01:46:18;;;;;;;7.30;6.00;;;;;;;;;;5111999;28;20227;-79
2023/12/03 01:48:45;;;;;;;4.77;4.20;;;;;;;;;;5112015;28;20215;-79
2023/12/03 01:51:12;;;;;;;8.47;6.50;;;;;;;;;;5111919;28;20236;-78
2023/12/03 01:53:39;;;;;;;5.47;4.93;;;;;;;;;;5112205;28;20247;-78
2023/12/03 01:56:08;;;;;;;6.17;5.67;;;;;;;;;;5099398;28;20220;-79
2023/12/03 01:58:35;;;;;;;9.63;6.33;;;;;;;;;;5108331;28;20211;-78
2023/12/03 02:01:03;;;;;;;8.50;6.87;;;;;;;;;;5111782;28;20234;-79
2023/12/03 02:03:30;;;;;;;8.97;6.37;;;;;;;;;;5111893;28;20544;-78
2023/12/03 02:06:04;;;;;;;11.00;7.33;;;;;;;;;;5111721;28;20243;-79
2023/12/03 02:08:31;;;;;;;8.77;7.53;;;;;;;;;;5108298;28;20647;-78
2023/12/03 02:10:58;;;;;;;10.87;7.83;;;;;;;;;;5111236;28;20223;-79
2023/12/03 02:13:28;;;;;;;9.87;6.60;;;;;;;;;;5111804;28;20224;-78
2023/12/03 02:15:55;;;;;;;10.97;7.40;;;;;;;;;;5111214;28;20245;-79
2023/12/03 02:18:22;;;;;;;8.13;6.90;;;;;;;;;;5111913;28;20205;-79
2023/12/03 02:20:49;;;;;;;10.17;7.47;;;;;;;;;;5110972;28;20710;-78
2023/12/03 02:23:18;;;;;;;10.70;8.00;;;;;;;;;;5111992;28;20197;-78
2023/12/03 02:25:45;;;;;;;11.27;8.77;;;;;;;;;;5110400;28;20649;-79
2023/12/03 02:28:12;;;;;;;4.70;4.23;;;;;;;;;;5111867;28;20242;-79
2023/12/03 02:30:39;;;;;;;6.87;5.00;;;;;;;;;;5110912;28;20228;-79
2023/12/03 02:33:06;;;;;;;8.53;6.97;;;;;;;;;;5111921;28;20232;-79
2023/12/03 02:35:33;;;;;;;11.17;7.27;;;;;;;;;;5110900;28;20319;-79
2023/12/03 02:38:00;;;;;;;13.37;7.03;;;;;;;;;;5111608;28;20212;-78
2023/12/03 02:40:31;;;;;;;11.90;6.23;;;;;;;;;;5110892;28;20231;-79
2023/12/03 02:42:58;;;;;;;11.10;7.63;;;;;;;;;;5111407;28;20208;-79
2023/12/03 02:45:25;;;;;;;6.00;5.50;;;;;;;;;;5110874;28;20240;-79
2023/12/03 02:47:52;;;;;;;8.73;7.13;;;;;;;;;;5111269;28;20223;-79
2023/12/03 02:50:19;;;;;;;6.80;5.53;;;;;;;;;;5110807;28;20200;-79
2023/12/03 02:52:46;;;;;;;6.03;5.07;;;;;;;;;;5111216;28;20204;-79
2023/12/03 02:55:13;;;;;;;7.23;6.50;;;;;;;;;;5111032;28;20223;-79
2023/12/03 02:57:41;;;;;;;11.67;8.27;;;;;;;;;;5110540;28;20569;-79
2023/12/03 03:00:10;;;;;;;8.57;5.63;;;;;;;;;;5110843;28;20203;-79
2023/12/03 03:02:37;;;;;;;8.17;7.37;;;;;;;;;;5111568;28;20200;-78
2023/12/03 03:05:04;;;;;;;10.93;7.40;;;;;;;;;;5110685;28;20231;-79
2023/12/03 03:07:31;;;;;;;7.80;7.00;;;;;;;;;;5111148;28;20211;-79
2023/12/03 03:09:58;;;;;;;10.13;7.47;;;;;;;;;;5110975;28;20257;-79
2023/12/03 03:12:25;;;;;;;11.40;8.20;;;;;;;;;;5110846;28;20231;-79
2023/12/03 03:14:54;;;;;;;11.80;7.93;;;;;;;;;;5111198;28;20204;-79
2023/12/03 03:17:21;;;;;;;11.00;8.80;;;;;;;;;;5110599;28;20251;-79
2023/12/03 03:19:48;;;;;;;11.73;8.17;;;;;;;;;;5111020;28;20218;-79
2023/12/03 03:22:15;;;;;;;11.93;8.50;;;;;;;;;;5109339;28;20738;-79
2023/12/03 03:24:42;;;;;;;15.37;8.60;;;;;;;;;;5110984;28;20232;-79
2023/12/03 03:27:10;;;;;;;12.33;8.23;;;;;;;;;;5110469;28;20235;-78
2023/12/03 03:29:37;;;;;;;14.23;8.73;;;;;;;;;;5111061;28;20207;-78
2023/12/03 03:32:06;;;;;;;14.07;9.23;;;;;;;;;;5110152;28;20289;-79
2023/12/03 03:34:33;;;;;;;14.63;10.50;;;;;;;;;;5111246;28;20253;-78
2023/12/03 03:37:00;;;;;;;13.37;9.03;;;;;;;;;;5109555;28;20306;-78
2023/12/03 03:39:26;;;;;;;10.93;7.80;;;;;;;;;;5111141;28;20207;-78
2023/12/03 03:41:53;;;;;;;12.57;7.67;;;;;;;;;;5110521;28;20230;-79
2023/12/03 03:44:20;;;;;;;10.00;7.43;;;;;;;;;;5110886;28;20576;-79
2023/12/03 03:46:47;;;;;;;9.60;7.57;;;;;;;;;;5110297;28;20242;-79
2023/12/03 03:49:15;;;;;;;13.73;9.33;;;;;;;;;;5110606;28;20204;-79
2023/12/03 03:51:42;;;;;;;5.83;5.27;;;;;;;;;;5109050;28;20598;-79
2023/12/03 03:54:09;;;;;;;13.37;8.40;;;;;;;;;;5110935;28;20261;-79
2023/12/03 03:56:36;;;;;;;6.40;4.63;;;;;;;;;;5111085;28;20297;-78
2023/12/03 03:59:03;;;;;;;13.00;9.83;;;;;;;;;;5114521;28;20200;-79
2023/12/03 04:01:30;;;;;;;10.10;7.20;;;;;;;;;;5114287;28;20241;-79
2023/12/03 04:03:57;;;;;;;14.03;9.77;;;;;;;;;;5114641;28;20275;-80
2023/12/03 04:06:26;;;;;;;17.10;8.27;;;;;;;;;;5114003;28;20228;-78
2023/12/03 04:08:53;;;;;;;9.50;6.23;;;;;;;;;;5114789;28;20614;-78
2023/12/03 04:11:20;;;;;;;11.40;6.87;;;;;;;;;;5113733;28;20280;-78
2023/12/03 04:13:47;;;;;;;9.77;7.60;;;;;;;;;;5114796;28;20294;-80
2023/12/03 04:16:22;;;;;;;6.20;5.63;;;;;;;;;;5113760;28;20231;-80
2023/12/03 04:18:49;;;;;;;10.33;7.13;;;;;;;;;;5118352;28;20234;-78
2023/12/03 04:21:16;;;;;;;9.93;8.03;;;;;;;;;;5118811;28;20235;-78
2023/12/03 04:23:44;;;;;;;12.97;7.80;;;;;;;;;;5118302;28;20207;-78
2023/12/03 04:26:12;;;;;;;8.63;6.60;;;;;;;;;;5113802;28;20318;-79
2023/12/03 04:28:41;;;;;;;14.47;10.33;;;;;;;;;;5114327;28;20212;-80
2023/12/03 04:31:16;;;;;;;6.63;5.60;;;;;;;;;;5113709;28;20307;-80
2023/12/03 04:33:43;;;;;;;15.50;9.43;;;;;;;;;;5113993;28;20199;-79
2023/12/03 04:36:10;;;;;;;10.47;8.43;;;;;;;;;;5113477;28;20232;-79
2023/12/03 04:38:37;;;;;;;11.23;8.07;;;;;;;;;;5114035;28;20290;-79
2023/12/03 04:41:06;;;;;;;7.47;6.73;;;;;;;;;;5113317;28;20255;-79
2023/12/03 04:43:33;;;;;;;11.33;7.77;;;;;;;;;;5114076;28;20204;-79
2023/12/03 04:46:03;;;;;;;12.10;8.00;;;;;;;;;;5112755;28;20243;-79
2023/12/03 04:48:34;;;;;;;8.23;7.17;;;;;;;;;;5109294;28;20228;-80
2023/12/03 04:51:02;;;;;;;5.80;5.23;;;;;;;;;;5113118;28;20235;-79
2023/12/03 04:53:30;;;;;;;14.47;9.37;;;;;;;;;;5113685;28;20204;-80
2023/12/03 04:55:57;;;;;;;10.37;8.03;;;;;;;;;;5112783;28;20319;-79
2023/12/03 04:58:25;;;;;;;11.43;8.33;;;;;;;;;;5113710;28;20224;-80
2023/12/03 05:00:53;;;;;;;12.87;9.83;;;;;;;;;;5112981;28;20753;-80
2023/12/03 05:03:20;;;;;;;10.10;7.03;;;;;;;;;;5113118;28;20230;-79
2023/12/03 05:05:47;;;;;;;6.27;5.80;;;;;;;;;;5112905;28;20797;-80
2023/12/03 05:08:14;;;;;;;10.07;8.13;;;;;;;;;;5113188;28;20211;-80
2023/12/03 05:10:41;;;;;;;8.07;4.80;;;;;;;;;;5112910;28;20232;-79
2023/12/03 05:13:08;;;;;;;8.87;6.83;;;;;;;;;;5113088;28;20204;-80
2023/12/03 05:15:36;;;;;;;13.47;9.17;;;;;;;;;;5112780;28;20257;-80
2023/12/03 05:18:04;;;;;;;13.67;9.73;;;;;;;;;;5113020;28;20248;-80
2023/12/03 05:20:32;;;;;;;12.17;8.90;;;;;;;;;;5112479;28;20322;-80
2023/12/03 05:22:59;;;;;;;16.13;9.40;;;;;;;;;;5112935;28;20204;-80
2023/12/03 05:25:26;;;;;;;20.93;9.60;;;;;;;;;;5112397;28;20235;-80
2023/12/03 05:27:53;;;;;;;12.73;10.07;;;;;;;;;;5110739;28;20276;-79
2023/12/03 05:30:20;;;;;;;14.23;10.27;;;;;;;;;;5112322;28;20260;-80
2023/12/03 05:32:48;;;;;;;16.00;9.73;;;;;;;;;;5112736;28;20212;-80
2023/12/03 05:35:15;;;;;;;13.63;9.17;;;;;;;;;;5108729;28;20650;-80
2023/12/03 05:37:42;;;;;;;16.60;11.17;;;;;;;;;;5108439;28;20204;-80
2023/12/03 05:40:10;;;;;;;14.97;9.07;;;;;;;;;;5112266;28;20284;-80
2023/12/03 05:42:37;;;;;;;12.53;7.33;;;;;;;;;;5112735;28;20291;-80
2023/12/03 05:45:04;;;;;;;8.80;7.83;;;;;;;;;;5109235;28;20222;-80
2023/12/03 05:47:31;;;;;;;13.53;9.53;;;;;;;;;;5112259;28;20226;-80
2023/12/03 05:50:01;;;;;;;14.67;9.20;;;;;;;;;;5112408;28;20204;-80
2023/12/03 05:52:28;;;;;;;15.80;10.17;;;;;;;;;;5112355;28;20299;-80
2023/12/03 05:54:55;;;;;;;14.53;9.10;;;;;;;;;;5112344;28;20264;-80
2023/12/03 05:57:22;;;;;;;11.50;8.10;;;;;;;;;;5111812;28;20228;-80
2023/12/03 05:59:49;;;;;;;14.33;9.67;;;;;;;;;;5112033;28;20211;-79
2023/12/03 06:02:16;;;;;;;14.53;10.27;;;;;;;;;;5111969;28;20227;-80
2023/12/03 06:04:43;;;;;;;13.37;9.40;;;;;;;;;;5111791;28;20331;-80
2023/12/03 06:07:12;;;;;;;4.67;4.20;;;;;;;;;;5111937;28;20232;-79
2023/12/03 06:09:39;;;;;;;11.17;8.77;;;;;;;;;;5112061;28;20215;-80
2023/12/03 06:12:06;;;;;;;3.50;3.40;;;;;;;;;;5111586;28;20242;-80
2023/12/03 06:14:33;;;;;;;8.27;7.40;;;;;;;;;;5112252;28;20204;-80
2023/12/03 06:17:01;;;;;;;15.07;9.50;;;;;;;;;;5111321;28;20232;-80
2023/12/03 06:19:28;;;;;;;11.27;7.43;;;;;;;;;;5111658;28;20210;-80
2023/12/03 06:21:55;;;;;;;10.37;7.13;;;;;;;;;;5111235;28;20232;-79
2023/12/03 06:24:25;;;;;;;9.00;7.13;;;;;;;;;;5111915;28;20717;-81
2023/12/03 06:26:52;;;;;;;14.13;9.87;;;;;;;;;;5111222;28;20239;-81
2023/12/03 06:29:19;;;;;;;13.20;9.50;;;;;;;;;;5112264;28;20260;-82
2023/12/03 06:31:47;;;;;;;18.80;11.97;;;;;;;;;;5111234;28;20230;-80
2023/12/03 06:34:15;;;;;;;13.07;8.97;;;;;;;;;;5111668;28;20200;-79
2023/12/03 06:36:42;;;;;;;8.73;7.33;;;;;;;;;;5111146;28;20231;-79
2023/12/03 06:39:09;;;;;;;16.53;9.03;;;;;;;;;;5111347;28;20299;-78
2023/12/03 06:41:38;;;;;;;20.30;10.80;;;;;;;;;;5111451;28;20611;-78
2023/12/03 06:44:05;;;;;;;12.07;8.97;;;;;;;;;;5111550;28;20204;-79
2023/12/03 06:46:39;;;;;;;3.83;3.60;;;;;;;;;;5110890;28;20292;-79
2023/12/03 06:49:06;;;;;;;15.83;10.07;;;;;;;;;;5111248;28;20214;-79
2023/12/03 06:51:33;;;;;;;15.80;10.03;;;;;;;;;;5111139;28;20770;-79
2023/12/03 06:54:00;;;;;;;5.80;5.23;;;;;;;;;;5111285;28;20273;-79
2023/12/03 06:56:27;;;;;;;7.97;5.87;;;;;;;;;;5111008;28;20242;-79
2023/12/03 06:58:56;;;;;;;11.83;8.93;;;;;;;;;;5111571;28;20576;-79
2023/12/03 07:01:23;;;;;;;10.37;7.77;;;;;;;;;;5111056;28;20273;-79
2023/12/03 07:03:50;;;;;;;12.90;9.30;;;;;;;;;;5111520;28;20204;-79
2023/12/03 07:06:17;;;;;;;15.50;10.20;;;;;;;;;;5102511;28;20230;-76
2023/12/03 07:08:45;;;;;;;10.80;8.67;;;;;;;;;;5111226;28;20207;-75
2023/12/03 07:11:13;;;;;;;12.13;8.97;;;;;;;;;;5107894;28;20263;-75
2023/12/03 07:13:40;;;;;;;14.50;9.17;;;;;;;;;;5111188;28;20682;-75
2023/12/03 07:16:10;;;;;;;16.70;10.67;;;;;;;;;;5110479;28;20310;-75
2023/12/03 07:18:37;;;;;;;16.03;10.03;;;;;;;;;;5110978;28;20200;-75
2023/12/03 07:21:04;;;;;;;18.23;11.63;;;;;;;;;;5110340;28;20245;-75
2023/12/03 07:23:32;;;;;;;14.43;9.30;;;;;;;;;;5110267;28;20195;-75
2023/12/03 07:25:59;;;;;;;11.17;8.30;;;;;;;;;;5107749;28;20238;-75
2023/12/03 07:28:26;;;;;;;14.30;9.53;;;;;;;;;;5110720;28;20203;-77
2023/12/03 07:30:53;;;;;;;18.63;10.70;;;;;;;;;;5110834;28;20232;-77
2023/12/03 07:33:21;;;;;;;5.37;4.77;;;;;;;;;;5114604;28;20204;-76
2023/12/03 07:35:48;;;;;;;14.93;9.63;;;;;;;;;;5114554;28;20307;-77
2023/12/03 07:38:15;;;;;;;6.57;4.43;;;;;;;;;;5114784;28;20210;-76
2023/12/03 07:40:42;;;;;;;7.07;5.60;;;;;;;;;;5114556;28;20231;-76
2023/12/03 07:43:10;;;;;;;21.57;11.33;;;;;;;;;;5114861;28;20272;-75
2023/12/03 07:45:37;;;;;;;15.77;10.53;;;;;;;;;;5113951;28;20343;-74
2023/12/03 07:48:04;;;;;;;15.37;10.23;;;;;;;;;;5114536;28;20230;-74
2023/12/03 07:50:33;;;;;;;12.30;8.17;;;;;;;;;;5110649;28;20241;-74
2023/12/03 07:53:00;;;;;;;14.63;9.13;;;;;;;;;;5111021;28;20200;-74
2023/12/03 07:55:27;;;;;;;9.07;7.93;;;;;;;;;;5113994;28;20773;-73
2023/12/03 07:57:54;;;;;;;13.80;8.77;;;;;;;;;;5114113;28;20208;-74
2023/12/03 08:00:21;;;;;;;20.07;9.83;;;;;;;;;;5113687;28;20566;-75
2023/12/03 08:02:48;;;;;;;12.93;9.17;;;;;;;;;;5114280;28;20240;-75
2023/12/03 08:05:15;;;;;;;13.73;8.80;;;;;;;;;;5108014;28;20595;-75
2023/12/03 08:07:44;;;;;;;8.57;7.77;;;;;;;;;;5114251;28;20208;-74
2023/12/03 08:10:11;;;;;;;10.57;7.37;;;;;;;;;;5113514;28;20263;-75
2023/12/03 08:12:38;;;;;;;6.37;4.60;;;;;;;;;;5114046;28;20291;-75
2023/12/03 08:15:06;;;;;;;6.23;5.60;;;;;;;;;;5113065;28;20666;-75
2023/12/03 08:17:33;;;;;;;10.93;8.20;;;;;;;;;;5113235;28;20291;-75
2023/12/03 08:20:00;;;;;;;18.07;10.23;;;;;;;;;;5113402;28;20254;-75
2023/12/03 08:22:27;;;;;;;17.17;9.63;;;;;;;;;;5110438;28;20224;-75
2023/12/03 08:24:55;;;;;;;23.23;11.87;;;;;;;;;;5113635;28;20204;-76
2023/12/03 08:27:22;;;;;;;14.27;9.83;;;;;;;;;;5112959;28;20236;-75
2023/12/03 08:29:49;;;;;;;12.60;7.93;;;;;;;;;;5113474;28;20196;-75
2023/12/03 08:32:19;;;;;;;13.97;10.90;;;;;;;;;;5110321;28;20281;-76
2023/12/03 08:34:46;;;;;;;8.47;5.80;;;;;;;;;;5113240;28;20204;-75
2023/12/03 08:37:13;;;;;;;11.13;7.80;;;;;;;;;;5112854;28;20728;-75
2023/12/03 08:39:41;;;;;;;15.73;9.70;;;;;;;;;;5113820;28;20214;-75
2023/12/03 08:42:09;;;;;;;12.03;9.30;;;;;;;;;;5110289;28;20257;-75
2023/12/03 08:44:37;;;;;;;7.47;4.97;;;;;;;;;;5112287;28;20227;-74
2023/12/03 08:47:04;;;;;;;17.17;11.17;;;;;;;;;;5109968;28;20231;-74
2023/12/03 08:49:31;;;;;;;24.07;10.23;;;;;;;;;;5113442;28;20215;-75
2023/12/03 08:51:58;;;;;;;14.47;10.47;;;;;;;;;;5112515;28;20624;-76
2023/12/03 08:54:25;;;;;;;5.27;4.87;;;;;;;;;;5113859;28;20256;-75
2023/12/03 08:56:52;;;;;;;13.57;8.80;;;;;;;;;;5115463;28;20232;-75
2023/12/03 08:59:23;;;;;;;7.87;6.67;;;;;;;;;;5116153;28;20208;-74
2023/12/03 09:01:50;;;;;;;18.67;12.30;;;;;;;;;;5113214;28;20602;-74
2023/12/03 09:04:17;;;;;;;13.43;9.90;;;;;;;;;;5106446;28;20212;-74
2023/12/03 09:06:44;;;;;;;8.10;6.20;;;;;;;;;;5112714;28;20223;-74
2023/12/03 09:09:11;;;;;;;17.13;9.40;;;;;;;;;;5110836;28;20207;-74
2023/12/03 09:11:42;;;;;;;15.27;9.10;;;;;;;;;;5112578;28;20345;-74
2023/12/03 09:14:09;;;;;;;13.53;9.33;;;;;;;;;;5112789;28;20201;-74
2023/12/03 09:16:37;;;;;;;16.10;10.00;;;;;;;;;;5112372;28;20238;-75
2023/12/03 09:19:04;;;;;;;4.50;4.13;;;;;;;;;;5112679;28;20229;-75
2023/12/03 09:21:31;;;;;;;9.10;7.47;;;;;;;;;;5112602;28;20232;-75
2023/12/03 09:23:58;;;;;;;4.00;3.63;;;;;;;;;;5113219;28;20200;-74
2023/12/03 09:26:25;;;;;;;12.70;8.73;;;;;;;;;;5110235;28;20590;-74
2023/12/03 09:28:53;;;;;;;9.67;7.90;;;;;;;;;;5108407;28;20217;-74
2023/12/03 09:31:20;;;;;;;13.37;8.70;;;;;;;;;;5112226;28;20286;-75
2023/12/03 09:33:49;;;;;;;10.23;8.43;;;;;;;;;;5112955;28;20728;-78
2023/12/03 09:36:16;;;;;;;14.03;9.70;;;;;;;;;;5116818;28;20234;-74
2023/12/03 09:38:43;;;;;;;16.47;10.73;;;;;;;;;;5114978;28;20211;-75
2023/12/03 09:41:14;;;;;;;4.83;4.43;;;;;;;;;;5112174;28;20236;-77
2023/12/03 09:43:42;;;;;;;13.00;9.90;;;;;;;;;;5113131;28;20214;-75
2023/12/03 09:46:12;;;;;;;13.20;9.57;;;;;;;;;;5111882;28;20235;-74
2023/12/03 09:48:42;;;;;;;11.87;9.30;;;;;;;;;;5110619;28;20218;-75
2023/12/03 09:51:11;;;;;;;24.60;11.83;;;;;;;;;;5111914;28;20236;-75
2023/12/03 09:53:39;;;;;;;17.50;10.63;;;;;;;;;;5112389;28;20302;-75
2023/12/03 09:56:07;;;;;;;6.77;5.97;;;;;;;;;;5110941;28;20236;-75
2023/12/03 09:58:34;;;;;;;17.70;10.07;;;;;;;;;;5112445;28;20208;-75
2023/12/03 10:01:01;;;;;;;21.30;11.83;;;;;;;;;;5111883;28;20521;-75
2023/12/03 10:03:28;;;;;;;11.90;8.67;;;;;;;;;;5099300;28;20208;-75
2023/12/03 10:05:56;;;;;;;9.90;6.90;;;;;;;;;;5108739;28;20265;-75
2023/12/03 10:08:25;;;;;;;14.57;9.10;;;;;;;;;;5111712;28;20220;-75
2023/12/03 10:11:02;;;;;;;8.37;6.33;;;;;;;;;;5111551;28;20235;-75
2023/12/03 10:13:29;;;;;;;12.27;6.77;;;;;;;;;;5103750;28;20199;-74
2023/12/03 10:15:56;;;;;;;12.83;8.70;;;;;;;;;;5111593;28;20591;-75
2023/12/03 10:18:23;;;;;;;13.90;8.83;;;;;;;;;;5107121;28;20246;-75
2023/12/03 10:20:51;;;;;;;12.83;7.67;;;;;;;;;;5111396;28;20721;-75
2023/12/03 10:23:19;;;;;;;14.03;9.10;;;;;;;;;;5111509;28;20618;-75
2023/12/03 10:25:47;;;;;;;11.20;8.67;;;;;;;;;;5111192;28;20234;-75
2023/12/03 10:28:14;;;;;;;11.17;7.80;;;;;;;;;;5111638;28;20216;-77
2023/12/03 10:30:41;;;;;;;10.07;6.73;;;;;;;;;;5111454;28;20600;-76
2023/12/03 10:33:11;;;;;;;16.80;9.87;;;;;;;;;;5111090;28;20205;-76
2023/12/03 10:35:38;;;;;;;15.00;9.73;;;;;;;;;;5111212;28;20943;-76
2023/12/03 10:38:07;;;;;;;14.30;9.57;;;;;;;;;;5111696;28;20370;-76
2023/12/03 10:40:35;;;;;;;14.97;10.00;;;;;;;;;;5111027;28;20285;-75
2023/12/03 10:43:04;;;;;;;12.83;8.27;;;;;;;;;;5111975;28;20208;-75
2023/12/03 10:45:32;;;;;;;14.87;9.17;;;;;;;;;;5110601;28;20245;-76
2023/12/03 10:48:01;;;;;;;17.13;10.03;;;;;;;;;;5111334;28;20232;-76
2023/12/03 10:50:28;;;;;;;11.77;8.13;;;;;;;;;;5110769;28;20232;-76
2023/12/03 10:52:56;;;;;;;15.80;9.17;;;;;;;;;;5111536;28;20291;-75
2023/12/03 10:55:23;;;;;;;5.80;5.23;;;;;;;;;;5102912;28;20241;-76
2023/12/03 10:57:55;;;;;;;13.70;8.63;;;;;;;;;;5103829;28;20345;-76
2023/12/03 11:00:25;;;;;;;15.87;8.37;;;;;;;;;;5103553;28;20206;-76
2023/12/03 11:02:57;;;;;;;13.00;8.33;;;;;;;;;;5109003;28;20237;-76
2023/12/03 11:05:27;;;;;;;14.67;9.33;;;;;;;;;;5110029;28;20286;-76
2023/12/03 11:07:55;;;;;;;10.40;6.60;;;;;;;;;;5114185;28;20283;-74
2023/12/03 11:10:22;;;;;;;6.97;6.27;;;;;;;;;;5113540;28;20240;-74
2023/12/03 11:12:49;;;;;;;4.87;4.10;;;;;;;;;;5114905;28;20205;-77
2023/12/03 11:15:16;;;;;;;14.20;9.10;;;;;;;;;;5113545;28;20210;-74
2023/12/03 11:17:45;;;;;;;13.60;9.63;;;;;;;;;;5114803;28;20692;-75
2023/12/03 11:20:14;;;;;;;11.60;8.93;;;;;;;;;;5113833;28;20209;-73
2023/12/03 11:22:48;;;;;;;14.63;8.60;;;;;;;;;;5114288;28;20625;-73
2023/12/03 11:25:16;;;;;;;12.77;8.13;;;;;;;;;;5113512;28;20209;-74
2023/12/03 11:27:44;;;;;;;14.17;8.57;;;;;;;;;;5108775;28;20582;-74
2023/12/03 11:30:12;;;;;;;14.00;8.77;;;;;;;;;;5113865;28;20255;-74
2023/12/03 11:32:39;;;;;;;5.87;5.17;;;;;;;;;;5114449;28;20745;-75
2023/12/03 11:35:09;;;;;;;10.77;7.93;;;;;;;;;;5113508;28;20201;-75
2023/12/03 11:37:37;;;;;;;10.40;7.87;;;;;;;;;;5114129;28;20274;-76
2023/12/03 11:40:08;;;;;;;13.50;7.40;;;;;;;;;;5113785;28;20210;-79
2023/12/03 11:42:35;;;;;;;13.03;8.87;;;;;;;;;;5108267;28;20291;-75
2023/12/03 11:45:23;;;;;;;12.10;8.53;;;;;;;;;;5113736;28;20203;-77
2023/12/03 11:48:09;;;;;;;10.17;6.87;;;;;;;;;;5107729;28;20275;-74
2023/12/03 11:50:39;;;;;;;10.77;8.17;;;;;;;;;;5113128;28;20713;-75
2023/12/03 11:53:06;;;;;;;11.63;7.80;;;;;;;;;;5114059;28;20578;-75
2023/12/03 11:55:35;;;;;;;7.07;5.47;;;;;;;;;;5112590;28;20326;-78
2023/12/03 11:58:43;;;;;;;12.37;7.63;;;;;;;;;;5127994;27;20607;-74
2023/12/03 12:01:10;;;;;;;13.70;9.13;;;;;;;;;;5108954;27;20854;-73
2023/12/03 12:03:37;;;;;;;19.10;11.63;;;;;;;;;;5092403;28;20494;-74
2023/12/03 12:06:04;;;;;;;17.88;11.10;;;;;;;;;;5077890;28;20443;-75
2023/12/03 12:08:31;;;;;;;17.20;10.13;;;;;;;;;;5066480;28;20221;-75
2023/12/03 12:10:58;;;;;;;12.77;9.23;;;;;;;;;;5066695;28;20238;-75
2023/12/03 12:13:25;;;;;;;15.67;8.97;;;;;;;;;;5066479;28;20296;-76
2023/12/03 12:15:55;;;;;;;14.60;9.82;;;;;;;;;;5072060;28;20437;-74
2023/12/03 12:18:23;;;;;;;11.63;8.40;;;;;;;;;;5086633;28;20220;-74
2023/12/03 12:20:50;;;;;;;9.70;8.53;;;;;;;;;;5080206;28;20317;-74
2023/12/03 12:23:17;;;;;;;11.47;8.40;;;;;;;;;;5066270;28;20221;-74
2023/12/03 12:25:44;;;;;;;11.67;8.67;;;;;;;;;;5066027;28;20237;-75
2023/12/03 12:28:11;;;;;;;10.83;7.27;;;;;;;;;;5067061;28;20254;-74
2023/12/03 12:30:41;;;;;;;11.10;7.07;;;;;;;;;;5066085;28;20240;-74
2023/12/03 12:33:10;;;;;;;12.53;8.03;;;;;;;;;;5066880;28;20209;-74
2023/12/03 12:35:37;;;;;;;11.47;6.80;;;;;;;;;;5057586;28;20748;-74
2023/12/03 12:38:04;;;;;;;9.17;6.90;;;;;;;;;;5066853;28;20712;-74
2023/12/03 12:40:31;;;;;;;11.30;8.00;;;;;;;;;;5065462;28;20245;-74
2023/12/03 12:43:05;;;;;;;11.67;7.53;;;;;;;;;;5066450;28;20217;-74
2023/12/03 12:45:32;;;;;;;12.23;7.97;;;;;;;;;;5065547;28;20339;-74
2023/12/03 12:47:59;;;;;;;13.80;8.93;;;;;;;;;;5066117;28;20601;-74
2023/12/03 12:50:35;;;;;;;11.20;7.33;;;;;;;;;;5071344;28;20232;-74
2023/12/03 12:53:03;;;;;;;12.30;7.33;;;;;;;;;;5091279;28;20212;-74
2023/12/03 12:55:31;;;;;;;11.70;7.77;;;;;;;;;;5085487;28;20653;-74
2023/12/03 12:57:59;;;;;;;12.87;7.63;;;;;;;;;;5086532;28;20657;-74
2023/12/03 13:00:26;;;;;;;12.73;8.53;;;;;;;;;;5082186;28;20578;-74
2023/12/03 13:02:53;;;;;;;12.73;8.20;;;;;;;;;;5066438;28;20288;-74
2023/12/03 13:05:21;;;;;;;12.70;8.80;;;;;;;;;;5064959;28;20206;-74
2023/12/03 13:07:49;;;;;;;14.57;8.57;;;;;;;;;;5065939;28;20207;-74
2023/12/03 13:10:16;;;;;;;10.00;7.23;;;;;;;;;;5051315;28;20209;-74
2023/12/03 13:12:44;;;;;;;10.83;7.77;;;;;;;;;;5052578;28;20206;-74
2023/12/03 13:15:12;;;;;;;8.40;6.53;;;;;;;;;;5052071;28;20292;-75
2023/12/03 13:17:46;;;;;;;11.37;7.63;;;;;;;;;;5052455;28;20222;-74
2023/12/03 13:20:13;;;;;;;12.43;8.03;;;;;;;;;;5051784;28;20228;-75
2023/12/03 13:22:40;;;;;;;14.03;8.47;;;;;;;;;;5052354;28;20780;-75
2023/12/03 13:25:10;;;;;;;14.27;8.33;;;;;;;;;;5051693;28;20297;-75
2023/12/03 13:27:37;;;;;;;11.93;7.33;;;;;;;;;;5052232;28;20213;-74
2023/12/03 13:30:05;;;;;;;8.83;7.27;;;;;;;;;;5052105;28;20265;-74
2023/12/03 13:32:33;;;;;;;8.03;5.43;;;;;;;;;;5051898;28;20630;-74
2023/12/03 13:35:01;;;;;;;9.50;6.40;;;;;;;;;;5052093;28;20202;-74
2023/12/03 13:37:28;;;;;;;11.43;8.67;;;;;;;;;;5071377;28;20316;-74
2023/12/03 13:39:55;;;;;;;14.80;8.17;;;;;;;;;;5072390;28;20626;-74
2023/12/03 13:42:23;;;;;;;10.07;6.80;;;;;;;;;;5071439;28;20225;-75
2023/12/03 13:44:51;;;;;;;16.70;8.37;;;;;;;;;;5071431;28;20240;-74
2023/12/03 13:47:18;;;;;;;10.47;7.43;;;;;;;;;;5071389;28;20703;-73
2023/12/03 13:49:45;;;;;;;13.63;8.23;;;;;;;;;;5071457;28;20209;-74
2023/12/03 13:52:13;;;;;;;8.87;6.53;;;;;;;;;;5076345;28;20312;-74
2023/12/03 13:54:40;;;;;;;6.83;6.03;;;;;;;;;;5072078;28;20299;-75
2023/12/03 13:57:07;;;;;;;78.23;33.17;;;;;;;;;;5057733;28;20230;-75
2023/12/03 13:59:35;;;;;;;94.27;40.70;;;;;;;;;;5062702;28;20263;-74
2023/12/03 14:02:02;;;;;;;14.80;9.13;;;;;;;;;;5053796;28;20230;-74
2023/12/03 14:04:29;;;;;;;10.03;8.27;;;;;;;;;;5051443;28;20241;-75
2023/12/03 14:06:56;;;;;;;13.67;7.90;;;;;;;;;;5067112;28;20236;-76
2023/12/03 14:09:23;;;;;;;12.67;8.77;;;;;;;;;;5071428;28;20285;-75
2023/12/03 14:11:50;;;;;;;11.37;7.73;;;;;;;;;;5071149;28;20737;-75
2023/12/03 14:14:19;;;;;;;10.80;7.07;;;;;;;;;;5071016;28;20255;-76
2023/12/03 14:16:54;;;;;;;13.27;8.97;;;;;;;;;;5071059;28;20256;-75
2023/12/03 14:19:21;;;;;;;9.70;7.60;;;;;;;;;;5071051;28;20329;-76
2023/12/03 14:21:49;;;;;;;8.00;6.83;;;;;;;;;;5070046;28;20225;-76
2023/12/03 14:24:16;;;;;;;9.50;7.37;;;;;;;;;;5071186;28;20209;-76
2023/12/03 14:26:43;;;;;;;12.60;7.13;;;;;;;;;;5070209;28;20233;-77
2023/12/03 14:29:10;;;;;;;10.63;7.20;;;;;;;;;;5071453;28;20209;-77
2023/12/03 14:31:37;;;;;;;10.80;7.27;;;;;;;;;;5070490;28;20248;-77
2023/12/03 14:34:05;;;;;;;14.10;8.20;;;;;;;;;;5071297;28;20267;-77
2023/12/03 14:36:33;;;;;;;9.83;7.67;;;;;;;;;;5070053;28;20632;-75